createdAt,value
2024-03-11T00:00:06.805Z,26.80
2024-03-11T00:02:39.382Z,30.33
2024-03-11T00:05:08.307Z,30.63
2024-03-11T00:07:38.308Z,30.17
2024-03-11T00:10:07.239Z,28.73
2024-03-11T00:12:39.952Z,29.65
2024-03-11T00:15:16.994Z,28.95
2024-03-11T00:17:44.379Z,31.95
2024-03-11T00:20:11.752Z,29.73
2024-03-11T00:22:39.113Z,28.35
2024-03-11T00:25:06.383Z,29.52
2024-03-11T00:27:37.536Z,30.27
2024-03-11T00:30:05.198Z,30.58
2024-03-11T00:32:32.513Z,29.13
2024-03-11T00:34:59.916Z,30.10
2024-03-11T00:37:27.186Z,28.52
2024-03-11T00:39:54.485Z,30.30
2024-03-11T00:42:21.722Z,30.85
2024-03-11T00:44:50.101Z,31.00
2024-03-11T00:47:19.572Z,27.75
2024-03-11T00:49:47.002Z,20.83
2024-03-11T00:52:14.295Z,29.17
2024-03-11T00:54:41.964Z,29.45
2024-03-11T00:57:09.230Z,31.25
2024-03-11T00:59:37.147Z,30.02
2024-03-11T01:02:04.659Z,28.67
2024-03-11T01:04:32.072Z,30.90
2024-03-11T01:09:31.616Z,29.55
2024-03-11T01:11:59.065Z,29.45
2024-03-11T01:14:26.480Z,28.63
2024-03-11T01:16:53.935Z,31.85
2024-03-11T01:19:23.654Z,29.30
2024-03-11T01:21:52.124Z,30.02
2024-03-11T01:24:19.410Z,32.20
2024-03-11T01:26:48.653Z,31.27
2024-03-11T01:29:16.553Z,31.02
2024-03-11T01:31:43.922Z,28.25
2024-03-11T01:34:11.184Z,24.17
2024-03-11T01:36:38.406Z,31.15
2024-03-11T01:39:13.338Z,25.90
2024-03-11T01:41:40.686Z,31.25
2024-03-11T01:44:08.017Z,27.40
2024-03-11T01:46:35.365Z,32.58
2024-03-11T01:49:05.638Z,30.02
2024-03-11T01:51:33.086Z,32.97
2024-03-11T01:54:00.856Z,34.80
2024-03-11T01:56:30.186Z,35.00
2024-03-11T01:58:57.781Z,34.92
2024-03-11T02:01:25.066Z,36.38
2024-03-11T02:03:52.484Z,32.38
2024-03-11T02:06:20.780Z,34.25
2024-03-11T02:08:48.150Z,35.28
2024-03-11T02:11:15.560Z,35.35
2024-03-11T02:13:42.952Z,34.78
2024-03-11T02:16:10.184Z,35.72
2024-03-11T02:18:37.696Z,36.45
2024-03-11T02:21:05.326Z,35.05
2024-03-11T02:23:33.425Z,34.53
2024-03-11T02:26:01.005Z,35.80
2024-03-11T02:28:28.543Z,36.33
2024-03-11T02:30:55.800Z,35.13
2024-03-11T02:33:23.206Z,35.00
2024-03-11T02:35:50.561Z,33.97
2024-03-11T02:38:17.945Z,25.83
2024-03-11T02:40:45.648Z,37.30
2024-03-11T02:43:12.963Z,38.83
2024-03-11T02:45:41.054Z,36.45
2024-03-11T02:48:08.753Z,33.75
2024-03-11T02:50:36.728Z,38.80
2024-03-11T02:53:06.099Z,37.83
2024-03-11T02:55:33.514Z,39.40
2024-03-11T02:58:01.494Z,39.40
2024-03-11T03:00:28.796Z,39.92
2024-03-11T03:02:56.110Z,36.95
2024-03-11T03:05:23.647Z,39.22
2024-03-11T03:07:51.597Z,38.78
2024-03-11T03:10:19.169Z,36.38
2024-03-11T03:12:46.640Z,40.88
2024-03-11T03:15:13.996Z,36.92
2024-03-11T03:17:41.355Z,39.35
2024-03-11T03:20:11.854Z,28.25
2024-03-11T03:22:39.756Z,38.67
2024-03-11T03:25:07.469Z,38.85
2024-03-11T03:27:34.834Z,38.78
2024-03-11T03:30:02.075Z,38.05
2024-03-11T03:32:29.478Z,39.13
2024-03-11T03:34:56.715Z,35.33
2024-03-11T03:37:24.947Z,38.53
2024-03-11T03:39:52.212Z,38.47
2024-03-11T03:42:19.534Z,39.30
2024-03-11T03:44:46.844Z,37.70
2024-03-11T03:47:15.404Z,33.10
2024-03-11T03:49:42.727Z,39.10
2024-03-11T03:52:10.079Z,41.90
2024-03-11T03:54:37.452Z,38.42
2024-03-11T03:57:04.811Z,40.83
2024-03-11T03:59:34.400Z,35.92
2024-03-11T04:02:01.723Z,40.63
2024-03-11T04:04:29.257Z,34.80
2024-03-11T04:06:56.560Z,37.95
2024-03-11T04:09:23.754Z,34.90
2024-03-11T04:11:51.155Z,32.70
2024-03-11T04:14:18.822Z,26.92
2024-03-11T04:16:46.113Z,30.48
2024-03-11T04:19:13.816Z,32.65
2024-03-11T04:21:41.905Z,37.25
2024-03-11T04:24:12.831Z,33.88
2024-03-11T04:26:40.304Z,36.10
2024-03-11T04:29:07.628Z,28.15
2024-03-11T04:31:34.931Z,39.85
2024-03-11T04:34:02.220Z,38.38
2024-03-11T04:36:30.736Z,38.63
2024-03-11T04:38:58.008Z,38.95
2024-03-11T04:41:25.289Z,41.83
2024-03-11T04:43:52.684Z,36.20
2024-03-11T04:46:19.882Z,38.28
2024-03-11T04:48:47.395Z,40.22
2024-03-11T04:51:14.816Z,35.00
2024-03-11T04:53:42.300Z,38.08
2024-03-11T04:56:09.675Z,39.05
2024-03-11T04:58:40.202Z,38.30
2024-03-11T05:01:07.629Z,40.20
2024-03-11T05:03:35.003Z,31.33
2024-03-11T05:06:02.512Z,37.17
2024-03-11T05:08:29.881Z,38.15
2024-03-11T05:10:57.290Z,37.08
2024-03-11T05:13:24.620Z,27.60
2024-03-11T05:15:51.867Z,35.95
2024-03-11T05:18:23.491Z,37.47
2024-03-11T05:20:51.129Z,39.55
2024-03-11T05:23:18.531Z,36.88
2024-03-11T05:25:46.707Z,28.70
2024-03-11T05:28:14.005Z,37.30
2024-03-11T05:30:41.984Z,32.78
2024-03-11T05:33:09.350Z,38.33
2024-03-11T05:35:37.356Z,33.85
2024-03-11T05:38:04.727Z,34.25
2024-03-11T05:40:32.080Z,32.80
2024-03-11T05:42:59.342Z,36.03
2024-03-11T05:45:27.682Z,32.13
2024-03-11T05:47:56.678Z,35.42
2024-03-11T05:50:25.474Z,39.03
2024-03-11T05:52:52.941Z,36.72
2024-03-11T05:55:23.377Z,33.58
2024-03-11T05:57:50.876Z,30.27
2024-03-11T06:00:18.833Z,35.53
2024-03-11T06:02:46.884Z,35.58
2024-03-11T06:05:14.941Z,32.67
2024-03-11T06:07:43.688Z,36.15
2024-03-11T06:10:11.170Z,30.77
2024-03-11T06:12:38.526Z,35.20
2024-03-11T06:15:05.940Z,39.88
2024-03-11T06:17:33.952Z,28.77
2024-03-11T06:20:05.137Z,38.28
2024-03-11T06:22:33.281Z,38.33
2024-03-11T06:25:00.640Z,38.67
2024-03-11T06:27:28.935Z,28.80
2024-03-11T06:29:58.129Z,40.20
2024-03-11T06:32:31.967Z,31.40
2024-03-11T06:34:59.432Z,34.58
2024-03-11T06:37:26.855Z,36.25
2024-03-11T06:39:54.204Z,34.78
2024-03-11T06:42:21.484Z,35.00
2024-03-11T06:44:48.969Z,34.88
2024-03-11T06:47:16.665Z,37.00
2024-03-11T06:49:44.088Z,38.88
2024-03-11T06:52:11.625Z,26.55
2024-03-11T06:54:38.936Z,36.92
2024-03-11T06:57:11.451Z,40.17
2024-03-11T06:59:39.418Z,37.22
2024-03-11T07:02:06.792Z,38.42
2024-03-11T07:04:34.075Z,38.83
2024-03-11T07:07:02.079Z,35.20
2024-03-11T07:09:29.815Z,40.17
2024-03-11T07:11:57.539Z,31.90
2024-03-11T07:14:25.732Z,36.88
2024-03-11T07:17:00.573Z,35.83
2024-03-11T07:19:31.049Z,40.33
2024-03-11T07:21:59.011Z,37.22
2024-03-11T07:24:26.888Z,40.33
2024-03-11T07:26:54.142Z,33.38
2024-03-11T07:29:23.604Z,41.25
2024-03-11T07:31:51.424Z,36.33
2024-03-11T07:34:18.874Z,32.72
2024-03-11T07:36:46.152Z,31.85
2024-03-11T07:39:13.560Z,40.88
2024-03-11T07:41:40.816Z,42.03
2024-03-11T07:44:08.279Z,37.20
2024-03-11T07:46:36.748Z,29.38
2024-03-11T07:49:04.320Z,35.15
2024-03-11T07:51:31.712Z,33.17
2024-03-11T07:53:59.056Z,33.70
2024-03-11T07:56:26.646Z,34.17
2024-03-11T07:58:56.628Z,38.47
2024-03-11T08:01:26.017Z,31.00
2024-03-11T08:03:54.138Z,34.55
2024-03-11T08:06:21.915Z,39.60
2024-03-11T08:08:54.067Z,25.52
2024-03-11T08:11:21.621Z,30.50
2024-03-11T08:13:49.002Z,34.03
2024-03-11T08:16:16.477Z,34.55
2024-03-11T08:18:43.843Z,38.90
2024-03-11T08:21:11.698Z,29.30
2024-03-11T08:23:45.210Z,34.78
2024-03-11T08:26:12.895Z,35.20
2024-03-11T08:28:41.199Z,30.13
2024-03-11T08:31:08.887Z,32.75
2024-03-11T08:33:36.229Z,33.22
2024-03-11T08:36:05.505Z,24.58
2024-03-11T08:38:33.400Z,33.58
2024-03-11T08:41:00.934Z,35.47
2024-03-11T08:43:28.434Z,36.38
2024-03-11T08:45:57.578Z,32.58
2024-03-11T08:48:24.904Z,31.88
2024-03-11T08:50:52.536Z,30.83
2024-03-11T08:53:20.422Z,35.53
2024-03-11T08:55:50.123Z,30.63
2024-03-11T08:58:21.163Z,33.38
2024-03-11T09:00:48.674Z,32.83
2024-03-11T09:03:20.022Z,22.98
2024-03-11T09:05:47.814Z,30.38
2024-03-11T09:08:36.022Z,29.13
2024-03-11T09:11:04.814Z,32.20
2024-03-11T09:13:32.206Z,34.67
2024-03-11T09:16:00.699Z,35.88
2024-03-11T09:18:28.315Z,29.90
2024-03-11T09:20:57.112Z,27.80
2024-03-11T09:23:24.384Z,26.35
2024-03-11T09:25:51.777Z,35.03
2024-03-11T09:28:19.173Z,36.13
2024-03-11T09:30:47.645Z,23.80
2024-03-11T09:33:15.902Z,35.88
2024-03-11T09:35:44.122Z,36.15
2024-03-11T09:38:14.037Z,33.33
2024-03-11T09:40:42.885Z,30.95
2024-03-11T09:43:13.072Z,35.17
2024-03-11T09:45:41.863Z,32.13
2024-03-11T09:48:10.251Z,30.73
2024-03-11T09:50:39.046Z,32.10
2024-03-11T09:53:14.961Z,35.40
2024-03-11T09:55:46.564Z,29.27
2024-03-11T09:58:14.348Z,31.67
2024-03-11T10:00:49.533Z,26.25
2024-03-11T10:03:17.369Z,37.22
2024-03-11T10:05:47.616Z,34.35
2024-03-11T10:08:16.289Z,30.40
2024-03-11T10:10:43.533Z,31.95
2024-03-11T10:13:11.270Z,31.63
2024-03-11T10:15:38.585Z,30.27
2024-03-11T10:18:05.986Z,28.15
2024-03-11T10:20:36.170Z,33.85
2024-03-11T10:23:04.931Z,34.97
2024-03-11T10:25:32.766Z,26.55
2024-03-11T10:28:01.086Z,34.72
2024-03-11T10:30:28.424Z,27.85
2024-03-11T10:32:59.031Z,34.33
2024-03-11T10:35:28.025Z,25.30
2024-03-11T10:37:55.688Z,32.65
2024-03-11T10:40:22.954Z,34.20
2024-03-11T10:42:57.170Z,33.08
2024-03-11T10:45:24.728Z,35.50
2024-03-11T10:47:52.158Z,32.88
2024-03-11T10:50:21.689Z,33.10
2024-03-11T10:52:49.966Z,35.22
2024-03-11T10:55:17.322Z,30.67
2024-03-11T10:57:45.560Z,32.90
2024-03-11T11:00:20.443Z,32.83
2024-03-11T11:02:50.627Z,33.85
2024-03-11T11:05:18.053Z,32.00
2024-03-11T11:07:45.427Z,35.22
2024-03-11T11:10:14.669Z,30.42
2024-03-11T11:12:43.422Z,34.33
2024-03-11T11:15:13.810Z,31.90
2024-03-11T11:17:43.615Z,28.77
2024-03-11T11:20:29.921Z,30.95
2024-03-11T11:22:58.477Z,32.40
2024-03-11T11:25:27.213Z,26.80
2024-03-11T11:27:56.702Z,30.45
2024-03-11T11:30:24.063Z,30.48
2024-03-11T11:32:52.812Z,34.58
2024-03-11T11:35:20.197Z,33.00
2024-03-11T11:37:48.099Z,34.65
2024-03-11T11:40:15.457Z,32.90
2024-03-11T11:42:42.784Z,36.50
2024-03-11T11:45:13.653Z,35.47
2024-03-11T11:47:41.469Z,31.90
2024-03-11T11:50:16.400Z,32.35
2024-03-11T11:52:45.508Z,34.63
2024-03-11T11:55:14.113Z,32.60
2024-03-11T11:57:46.337Z,33.85
2024-03-11T12:00:19.134Z,32.13
2024-03-11T12:02:52.618Z,31.00
2024-03-11T12:05:20.038Z,31.75
2024-03-11T12:07:48.810Z,26.83
2024-03-11T12:10:16.265Z,28.20
2024-03-11T12:12:49.553Z,31.70
2024-03-11T12:15:17.117Z,31.08
2024-03-11T12:17:45.975Z,29.80
2024-03-11T12:20:21.409Z,30.98
2024-03-11T12:22:48.971Z,30.05
2024-03-11T12:25:18.890Z,32.38
2024-03-11T12:27:46.752Z,32.45
2024-03-11T12:30:20.424Z,29.48
2024-03-11T12:32:48.581Z,31.73
2024-03-11T12:35:16.993Z,30.80
2024-03-11T12:37:44.540Z,31.95
2024-03-11T12:40:21.126Z,30.50
2024-03-11T12:42:58.084Z,30.65
2024-03-11T12:45:27.247Z,26.73
2024-03-11T12:47:57.170Z,25.73
2024-03-11T12:50:25.649Z,27.95
2024-03-11T12:52:52.911Z,29.20
2024-03-11T12:55:20.432Z,28.23
2024-03-11T12:57:51.182Z,28.02
2024-03-11T13:00:25.631Z,29.40
2024-03-11T13:02:54.789Z,24.65
2024-03-11T13:05:22.376Z,27.00
2024-03-11T13:07:50.826Z,29.35
2024-03-11T13:10:18.174Z,26.83
2024-03-11T13:12:45.575Z,27.27
2024-03-11T13:15:14.960Z,25.17
2024-03-11T13:17:43.258Z,28.10
2024-03-11T13:20:25.820Z,27.65
2024-03-11T13:22:53.287Z,29.23
2024-03-11T13:25:20.536Z,28.55
2024-03-11T13:27:49.013Z,24.23
2024-03-11T13:30:16.594Z,25.70
2024-03-11T13:32:44.444Z,26.05
2024-03-11T13:35:11.776Z,28.20
2024-03-11T13:37:39.709Z,28.00
2024-03-11T13:40:08.854Z,25.70
2024-03-11T13:42:38.034Z,25.48
2024-03-11T13:45:06.919Z,26.05
2024-03-11T13:47:34.556Z,24.35
2024-03-11T13:50:01.901Z,22.00
2024-03-11T13:52:29.310Z,23.45
2024-03-11T13:54:56.857Z,27.00
2024-03-11T13:57:24.165Z,24.25
2024-03-11T13:59:52.459Z,27.23
2024-03-11T14:02:20.834Z,27.48
2024-03-11T14:04:48.165Z,26.60
2024-03-11T14:07:17.900Z,25.55
2024-03-11T14:09:45.239Z,25.73
2024-03-11T14:12:13.740Z,23.63
2024-03-11T14:14:41.720Z,24.55
2024-03-11T14:17:09.103Z,23.30
2024-03-11T14:19:37.618Z,19.48
2024-03-11T14:22:07.358Z,22.63
2024-03-11T14:24:34.723Z,23.20
2024-03-11T14:27:02.216Z,25.65
2024-03-11T14:29:31.475Z,29.13
2024-03-11T14:31:59.113Z,21.20
2024-03-11T14:34:28.125Z,25.83
2024-03-11T14:36:55.851Z,24.48
2024-03-11T14:39:23.334Z,23.17
2024-03-11T14:41:50.687Z,25.40
2024-03-11T14:44:18.404Z,26.77
2024-03-11T14:46:56.733Z,28.67
2024-03-11T14:49:26.417Z,27.67
2024-03-11T14:51:57.429Z,26.48
2024-03-11T14:54:31.475Z,28.17
2024-03-11T14:56:59.151Z,26.88
2024-03-11T14:59:27.421Z,25.38
2024-03-11T15:01:55.676Z,24.17
2024-03-11T15:04:26.505Z,26.58
2024-03-11T15:06:54.265Z,25.52
2024-03-11T15:09:23.244Z,27.13
2024-03-11T15:11:50.678Z,19.88
2024-03-11T15:14:17.980Z,24.95
2024-03-11T15:16:45.574Z,28.08
2024-03-11T15:19:13.576Z,24.88
2024-03-11T15:21:40.981Z,20.42
2024-03-11T15:24:09.641Z,24.98
2024-03-11T15:26:40.076Z,25.85
2024-03-11T15:29:07.837Z,25.05
2024-03-11T15:31:35.239Z,24.67
2024-03-11T15:34:03.015Z,23.75
2024-03-11T15:36:33.016Z,21.15
2024-03-11T15:39:00.571Z,21.42
2024-03-11T15:41:28.895Z,16.77
2024-03-11T15:43:57.299Z,21.20
2024-03-11T15:46:27.427Z,21.85
2024-03-11T15:48:54.891Z,22.95
2024-03-11T15:51:22.187Z,20.13
2024-03-11T15:53:52.605Z,23.75
2024-03-11T15:56:20.367Z,22.05
2024-03-11T15:58:47.774Z,17.35
2024-03-11T16:01:15.373Z,21.00
2024-03-11T16:03:42.818Z,23.55
2024-03-11T16:06:10.769Z,22.10
2024-03-11T16:08:38.154Z,16.88
2024-03-11T16:11:07.987Z,19.48
2024-03-11T16:13:35.597Z,19.65
2024-03-11T16:16:06.677Z,18.17
2024-03-11T16:18:36.300Z,22.58
2024-03-11T16:21:04.316Z,20.98
2024-03-11T16:23:32.915Z,22.30
2024-03-11T16:26:00.313Z,18.55
2024-03-11T16:28:28.359Z,22.55
2024-03-11T16:30:56.781Z,18.77
2024-03-11T16:33:25.625Z,21.25
2024-03-11T16:35:56.157Z,18.65
2024-03-11T16:38:24.490Z,24.08
2024-03-11T16:40:52.318Z,19.20
2024-03-11T16:43:21.612Z,22.25
2024-03-11T16:45:50.363Z,20.90
2024-03-11T16:48:18.409Z,23.95
2024-03-11T16:50:47.346Z,23.17
2024-03-11T16:53:15.635Z,21.60
2024-03-11T16:55:43.579Z,22.23
2024-03-11T16:58:13.269Z,19.83
2024-03-11T17:00:43.123Z,22.05
2024-03-11T17:03:10.795Z,19.35
2024-03-11T17:05:39.849Z,21.65
2024-03-11T17:08:07.449Z,14.05
2024-03-11T17:10:34.883Z,22.77
2024-03-11T17:13:11.109Z,21.23
2024-03-11T17:15:40.945Z,22.08
2024-03-11T17:18:09.100Z,20.95
2024-03-11T17:20:45.319Z,25.77
2024-03-11T17:23:17.535Z,23.38
2024-03-11T17:25:46.415Z,23.70
2024-03-11T17:28:17.177Z,23.08
2024-03-11T17:30:47.362Z,19.15
2024-03-11T17:33:15.957Z,20.73
2024-03-11T17:35:46.856Z,20.30
2024-03-11T17:38:14.259Z,24.42
2024-03-11T17:40:41.483Z,24.45
2024-03-11T17:43:12.032Z,22.77
2024-03-11T17:45:40.660Z,15.25
2024-03-11T17:48:09.136Z,21.73
2024-03-11T17:50:37.361Z,20.55
2024-03-11T17:53:04.582Z,17.63
2024-03-11T17:55:39.017Z,17.88
2024-03-11T17:58:07.563Z,22.77
2024-03-11T18:00:35.103Z,23.10
2024-03-11T18:03:02.642Z,24.63
2024-03-11T18:05:30.342Z,23.23
2024-03-11T18:08:02.586Z,22.55
2024-03-11T18:10:33.370Z,22.67
2024-03-11T18:13:01.868Z,24.95
2024-03-11T18:15:29.327Z,25.35
2024-03-11T18:17:56.948Z,21.88
2024-03-11T18:20:24.672Z,22.15
2024-03-11T18:22:55.843Z,25.77
2024-03-11T18:25:24.445Z,25.65
2024-03-11T18:27:53.032Z,25.88
2024-03-11T18:30:20.673Z,26.95
2024-03-11T18:32:49.188Z,25.47
2024-03-11T18:35:26.810Z,26.25
2024-03-11T18:38:01.619Z,25.20
2024-03-11T18:40:31.082Z,26.13
2024-03-11T18:43:06.869Z,28.33
2024-03-11T18:45:37.267Z,20.00
2024-03-11T18:48:08.188Z,27.85
2024-03-11T18:50:37.295Z,27.00
2024-03-11T18:53:07.723Z,26.38
2024-03-11T18:55:36.968Z,26.25
2024-03-11T18:58:05.609Z,26.88
2024-03-11T19:00:33.644Z,28.30
2024-03-11T19:03:01.986Z,27.70
2024-03-11T19:05:30.323Z,26.52
2024-03-11T19:07:58.061Z,27.92
2024-03-11T19:10:28.017Z,27.55
2024-03-11T19:12:56.345Z,27.33
2024-03-11T19:15:25.674Z,27.50
2024-03-11T19:17:53.478Z,28.52
2024-03-11T19:20:24.386Z,27.10
2024-03-11T19:22:56.255Z,25.75
2024-03-11T19:25:33.042Z,25.65
2024-03-11T19:28:02.871Z,26.00
2024-03-11T19:30:33.578Z,26.65
2024-03-11T19:33:03.131Z,26.05
2024-03-11T19:35:31.077Z,26.70
2024-03-11T19:37:58.482Z,26.23
2024-03-11T19:40:27.173Z,28.63
2024-03-11T19:42:54.507Z,26.58
2024-03-11T19:45:22.871Z,27.23
2024-03-11T19:47:50.643Z,27.90
2024-03-11T19:50:23.326Z,27.63
2024-03-11T19:52:50.920Z,26.67
2024-03-11T19:55:19.487Z,25.77
2024-03-11T19:57:46.831Z,25.58
2024-03-11T20:00:29.490Z,27.85
2024-03-11T20:02:57.569Z,24.67
2024-03-11T20:05:25.053Z,26.35
2024-03-11T20:07:52.363Z,26.13
2024-03-11T20:10:20.425Z,24.27
2024-03-11T20:12:48.818Z,27.38
2024-03-11T20:15:16.668Z,25.73
2024-03-11T20:17:44.040Z,27.75
2024-03-11T20:20:13.468Z,27.58
2024-03-11T20:22:42.493Z,29.52
2024-03-11T20:25:11.672Z,27.83
2024-03-11T20:27:39.318Z,27.90
2024-03-11T20:30:06.651Z,26.30
2024-03-11T20:32:35.535Z,27.17
2024-03-11T20:35:03.211Z,27.10
2024-03-11T20:37:32.265Z,29.45
2024-03-11T20:39:59.909Z,27.38
2024-03-11T20:42:29.081Z,26.02
2024-03-11T20:45:00.755Z,29.73
2024-03-11T20:47:28.171Z,26.90
2024-03-11T20:49:55.497Z,29.17
2024-03-11T20:52:23.029Z,29.85
2024-03-11T20:54:50.366Z,26.10
2024-03-11T20:57:20.839Z,27.45
2024-03-11T20:59:48.257Z,28.40
2024-03-11T21:02:15.615Z,27.15
2024-03-11T21:04:43.573Z,27.13
2024-03-11T21:07:11.817Z,25.63
2024-03-11T21:09:40.219Z,26.50
2024-03-11T21:12:07.674Z,27.52
2024-03-11T21:14:35.903Z,27.67
2024-03-11T21:17:10.330Z,24.30
2024-03-11T21:19:39.624Z,26.70
2024-03-11T21:22:17.439Z,26.55
2024-03-11T21:24:48.317Z,28.02
2024-03-11T21:27:25.871Z,27.05
2024-03-11T21:29:55.498Z,28.42
2024-03-11T21:32:25.079Z,26.40
2024-03-11T21:34:59.240Z,27.95
2024-03-11T21:37:35.290Z,30.25
2024-03-11T21:40:17.099Z,30.55
2024-03-11T21:42:58.542Z,30.15
2024-03-11T21:45:30.336Z,28.75
2024-03-11T21:48:00.014Z,28.98
2024-03-11T21:50:27.662Z,30.50
2024-03-11T21:52:54.938Z,31.20
2024-03-11T21:55:23.837Z,30.60
2024-03-11T21:57:51.902Z,31.17
2024-03-11T22:00:19.467Z,29.75
2024-03-11T22:02:47.680Z,29.08
2024-03-11T22:05:15.063Z,32.70
2024-03-11T22:07:42.397Z,32.70
2024-03-11T22:10:09.739Z,36.08
2024-03-11T22:12:38.644Z,40.88
2024-03-11T22:15:08.806Z,37.38
2024-03-11T22:17:36.258Z,32.40
2024-03-11T22:20:10.117Z,32.30
2024-03-11T22:22:37.434Z,33.03
2024-03-11T22:25:05.382Z,34.65
2024-03-11T22:27:33.016Z,33.78
2024-03-11T22:30:01.854Z,36.10
2024-03-11T22:32:32.594Z,32.28
2024-03-11T22:35:00.529Z,31.52
2024-03-11T22:37:29.347Z,32.90
2024-03-11T22:39:58.141Z,31.92
2024-03-11T22:42:29.677Z,31.73
2024-03-11T22:44:58.794Z,31.33
2024-03-11T22:47:27.260Z,30.98
2024-03-11T22:49:54.946Z,30.67
2024-03-11T22:52:24.836Z,31.75
2024-03-11T22:54:52.491Z,31.13
2024-03-11T22:57:23.272Z,29.55
2024-03-11T22:59:55.180Z,32.58
2024-03-11T23:02:25.069Z,29.88
2024-03-11T23:04:56.573Z,33.67
2024-03-11T23:07:24.797Z,30.65
2024-03-11T23:09:53.795Z,34.58
2024-03-11T23:12:25.747Z,30.45
2024-03-11T23:15:00.984Z,31.65
2024-03-11T23:17:35.794Z,34.17
2024-03-11T23:20:04.174Z,32.28
2024-03-11T23:22:32.428Z,35.08
2024-03-11T23:25:02.009Z,35.20
2024-03-11T23:27:34.619Z,32.20
2024-03-11T23:30:17.643Z,31.15
2024-03-11T23:32:50.477Z,32.92
2024-03-11T23:35:21.718Z,32.53
2024-03-11T23:37:51.256Z,34.00
2024-03-11T23:40:26.054Z,34.90
2024-03-11T23:42:57.362Z,33.90
2024-03-11T23:45:27.984Z,35.33
2024-03-11T23:48:01.158Z,34.70
2024-03-11T23:50:37.106Z,35.85
2024-03-11T23:53:05.956Z,37.30
2024-03-11T23:55:41.968Z,35.03
2024-03-11T23:58:12.558Z,34.53
